• Join FlightAware (Why Join?)
  • Login
  • US Flag 
05:54AM EDT


 

Airport Tracker/Info


-or-


 

Live Flight TrackerFlight Track Log ✈ N269C ✈ 05-Dec-2013 ✈ KALW - 3S8

Flight Track Log - Related Links

Times and Time Zones

All times are in EST time to prevent confusion due to time zone crossing. See the N269C flight status page for this flight to view local times or setup timezone preferences in your user account.

Time Position Orientation Groundspeed Altitude Reporting Facility
EST Latitude Longitude Course Direction KTS MPH feet Rate Location/Type
07:33PM 46.0469 -118.3361 231° Southwest 150 173 3,000  Level Seattle Center
07:34PM 46.0189 -118.3767 225° Southwest 148 170 4,000 960 Climbing Seattle Center
07:35PM 45.9906 -118.4247 230° Southwest 157 181 5,000 960 Climbing Seattle Center
07:36PM 45.9606 -118.4697 226° Southwest 157 181 6,000 900 Climbing Seattle Center
07:37PM 45.9311 -118.5167 228° Southwest 159 183 6,900 900 Climbing Seattle Center
07:39PM 45.8851 -118.6149 231° Southwest  Level Estimated
07:39PM 45.9014 -118.5625 227° Southwest 161 185 7,900  Level Seattle Center
07:40PM 45.8708 -118.6097 227° Southwest 163 188 8,800 900 Climbing Seattle Center
07:41PM 45.8406 -118.6561 227° Southwest 161 185 9,800 960 Climbing Seattle Center
07:42PM 45.8103 -118.7039 228° Southwest 162 186 10,800 960 Climbing Seattle Center
07:43PM 45.7797 -118.7508 227° Southwest 162 186 11,800 900 Climbing Seattle Center
07:44PM 45.7489 -118.7994 228° Southwest 164 189 12,700 1,020 Climbing Seattle Center
07:45PM 45.7108 -118.8586 227° Southwest 169 194 13,900 1,020 Climbing Seattle Center
07:46PM 45.6783 -118.9081 227° Southwest 170 196 14,800 840 Climbing Seattle Center
07:47PM 45.6464 -118.9583 228° Southwest 171 197 15,700 780 Climbing Seattle Center
07:48PM 45.6133 -119.0094 227° Southwest 176 203 16,500 780 Climbing Seattle Center
07:49PM 45.5786 -119.0606 226° Southwest 179 206 17,300 660 Climbing Seattle Center
07:50PM 45.5439 -119.1153 228° Southwest 185 213 17,900 180 Climbing Seattle Center
07:51PM 45.5064 -119.1744 228° Southwest 200 230 17,700  Descending Seattle Center
07:52PM 45.4672 -119.2367 228° Southwest 211 243 17,900 120 Climbing Seattle Center
07:53PM 45.4269 -119.2933 225° Southwest 207 238 18,000  Climbing Seattle Center
07:54PM 45.3892 -119.3497 226° Southwest 200 230 18,000  Level Seattle Center
07:55PM 45.3519 -119.4058 227° Southwest 197 227 18,000  Level Seattle Center
07:56PM 45.3142 -119.4628 227° Southwest 198 228 18,000  Level Seattle Center
07:57PM 45.2681 -119.5314 226° Southwest 200 230 18,000  Level Seattle Center
07:58PM 45.2306 -119.5886 227° Southwest 199 229 18,000  Level Seattle Center
07:59PM 45.1928 -119.6450 226° Southwest 199 229 18,000  Level Seattle Center
08:00PM 45.1550 -119.7011 226° Southwest 196 226 18,000  Level Seattle Center
08:01PM 45.1172 -119.7578 227° Southwest 196 226 18,000  Level Seattle Center
08:02PM 45.0792 -119.8139 226° Southwest 197 227 18,000  Level Seattle Center
08:03PM 45.0411 -119.8703 226° Southwest 197 227 18,000  Level Seattle Center
08:04PM 45.0017 -119.9272 226° Southwest 202 232 18,000  Level Seattle Center
08:05PM 44.9644 -119.9814 226° Southwest 196 226 18,000  Level Seattle Center
08:06PM 44.9225 -120.0456 227° Southwest 197 227 18,000  Level Seattle Center
08:07PM 44.8842 -120.1019 226° Southwest 201 231 18,000  Level Seattle Center
08:08PM 44.8464 -120.1578 226° Southwest 198 228 18,000  Level Seattle Center
08:09PM 44.8078 -120.2147 226° Southwest 200 230 18,000  Level Seattle Center
08:10PM 44.7692 -120.2711 226° Southwest 201 231 18,000  Level Seattle Center
08:11PM 44.7308 -120.3272 226° Southwest 199 229 18,000  Level Seattle Center
08:12PM 44.6925 -120.3833 226° Southwest 200 230 18,000  Level Seattle Center
08:13PM 44.6539 -120.4403 226° Southwest 201 231 18,000  Level Seattle Center
08:14PM 44.6108 -120.5025 226° Southwest 199 229 18,000  Level Seattle Center
08:15PM 44.5725 -120.5589 226° Southwest 200 230 18,000  Level Seattle Center
08:16PM 44.5339 -120.6133 225° Southwest 198 228 18,000  Level Seattle Center
08:17PM 44.4950 -120.6697 226° Southwest 199 229 18,000  Level Seattle Center
08:18PM 44.4564 -120.7253 226° Southwest 199 229 18,000  Level Seattle Center
08:19PM 44.4175 -120.7811 226° Southwest 200 230 18,000  Level Seattle Center
08:20PM 44.3792 -120.8356 225° Southwest 197 227 18,000  Level Seattle Center
08:21PM 44.3408 -120.8900 225° Southwest 197 227 18,000  Level Seattle Center
08:22PM 44.3019 -120.9450 225° Southwest 197 227 18,000  Level Seattle Center
08:23PM 44.2628 -121.0011 226° Southwest 199 229 18,000  Level Seattle Center
08:24PM 44.2231 -121.0572 225° Southwest 199 229 18,000  Level Seattle Center
08:25PM 44.1842 -121.1139 226° Southwest 197 227 18,000  Level Seattle Center
08:26PM 44.1453 -121.1686 225° Southwest 196 226 18,000  Level Seattle Center
08:27PM 44.1056 -121.2231 225° Southwest 198 228 18,000  Level Seattle Center
08:28PM 44.0675 -121.2778 226° Southwest 196 226 18,000  Level Seattle Center
08:29PM 44.0292 -121.3314 225° Southwest 196 226 18,000  Level Seattle Center
08:30PM 43.9836 -121.3958 226° Southwest 194 223 18,000  Level Seattle Center
08:31PM 43.9453 -121.4500 226° Southwest 195 224 18,000  Level Seattle Center
08:32PM 43.9075 -121.5025 225° Southwest 193 222 18,000  Level Seattle Center
08:33PM 43.8683 -121.5553 224° Southwest 194 223 18,000  Level Seattle Center
08:34PM 43.8308 -121.6100 226° Southwest 196 226 18,000  Level Seattle Center
08:35PM 43.7919 -121.6622 224° Southwest 196 226 18,000 -120 Level Seattle Center
08:36PM 43.7522 -121.7172 225° Southwest 200 230 17,800 -240 Descending Seattle Center
08:37PM 43.7106 -121.7775 226° Southwest 214 246 17,600 -360 Descending Seattle Center
08:38PM 43.6681 -121.8342 224° Southwest 213 245 17,100 -480 Descending Seattle Center
08:40PM 43.6286 -121.8881 225° Southwest 213 245 16,700 -480 Descending Seattle Center
08:41PM 43.5867 -121.9478 226° Southwest 216 249 16,200 -660 Descending Seattle Center
08:42PM 43.5369 -122.0167 225° Southwest 212 244 15,400 -720 Descending Seattle Center
08:43PM 43.4936 -122.0758 225° Southwest 217 250 14,800 -600 Descending Seattle Center
08:44PM 43.4511 -122.1328 224° Southwest 213 245 14,300 -600 Descending Seattle Center
08:45PM 43.4089 -122.1908 225° Southwest 213 245 13,700 -600 Descending Seattle Center
08:46PM 43.3669 -122.2475 224° Southwest 210 242 13,200 -540 Descending Seattle Center
08:47PM 43.3264 -122.3031 225° Southwest 207 238 12,700 -540 Descending Seattle Center
08:48PM 43.2847 -122.3592 224° Southwest 206 237 12,200 -360 Descending Seattle Center
08:49PM 43.2464 -122.4122 225° Southwest 204 235 12,000 -180 Descending Seattle Center
08:50PM 43.2069 -122.4644 224° Southwest 199 229 11,900  Descending Seattle Center
08:51PM 43.1708 -122.5136 225° Southwest 191 220 12,000  Climbing Seattle Center
08:52PM 43.1333 -122.5614 223° Southwest 187 215 12,000  Level Seattle Center
08:53PM 43.0964 -122.6119 225° Southwest 186 214 12,000  Level Seattle Center
08:54PM 43.0603 -122.6589 224° Southwest 183 211 12,000  Level Seattle Center
08:55PM 43.0231 -122.7108 226° Southwest 187 215 12,000  Level Seattle Center
08:56PM 42.9844 -122.7644 225° Southwest 196 226 12,000 -240 Level Seattle Center
08:57PM 42.9464 -122.8169 225° Southwest 196 226 11,600 -420 Descending Seattle Center
08:58PM 42.9067 -122.8700 224° Southwest 202 232 11,200 -480 Descending Seattle Center
08:59PM 42.8681 -122.9233 225° Southwest 201 231 10,700 -600 Descending Seattle Center
09:00PM 42.8186 -122.9842 222° Southwest 201 231 10,100 -600 Descending Seattle Center
09:01PM 42.7792 -123.0350 223° Southwest 196 226 9,600 -540 Descending Seattle Center
09:02PM 42.7411 -123.0861 225° Southwest 192 221 9,100 -480 Descending Seattle Center
09:03PM 42.7047 -123.1347 224° Southwest 195 224 8,700 -480 Descending Seattle Center
09:04PM 42.6664 -123.1831 223° Southwest 191 220 8,200 -360 Descending Seattle Center
09:05PM 42.6308 -123.2289 223° Southwest 190 219 8,000 -240 Descending Seattle Center